createdAt,value
2017-08-04T00:00:18.900Z,0
2017-08-04T00:01:29.363Z,0
2017-08-04T00:02:39.558Z,0
2017-08-04T00:03:50.510Z,0
2017-08-04T00:05:00.975Z,0
2017-08-04T00:06:11.151Z,0
2017-08-04T00:07:21.654Z,0
2017-08-04T00:08:32.115Z,0
2017-08-04T00:09:42.895Z,0
2017-08-04T00:10:53.089Z,0
2017-08-04T00:12:03.657Z,0
2017-08-04T00:13:14.138Z,0
2017-08-04T00:14:24.604Z,0
2017-08-04T00:15:35.640Z,0
2017-08-04T00:16:46.094Z,0
2017-08-04T00:17:56.583Z,0
2017-08-04T00:19:07.052Z,0
2017-08-04T00:20:17.057Z,0
2017-08-04T00:21:27.758Z,0
2017-08-04T00:22:38.234Z,0
2017-08-04T00:23:48.929Z,0
2017-08-04T00:24:59.425Z,0
2017-08-04T00:26:09.970Z,0
2017-08-04T00:27:20.818Z,0
2017-08-04T00:28:31.277Z,0
2017-08-04T00:29:41.784Z,0
2017-08-04T00:30:52.325Z,0
2017-08-04T00:32:02.781Z,0
2017-08-04T00:33:13.248Z,0
2017-08-04T00:34:23.310Z,0
2017-08-04T00:35:33.459Z,0
2017-08-04T00:36:44.151Z,0
2017-08-04T00:37:54.710Z,0
2017-08-04T00:39:05.447Z,0
2017-08-04T00:40:15.611Z,0
2017-08-04T00:41:26.071Z,0
2017-08-04T00:42:36.550Z,0
2017-08-04T00:43:47.001Z,0
2017-08-04T00:44:57.699Z,0
2017-08-04T00:46:08.185Z,0
2017-08-04T00:47:18.397Z,0
2017-08-04T00:48:28.889Z,0
2017-08-04T00:49:39.363Z,0
2017-08-04T00:50:50.200Z,0
2017-08-04T00:52:00.372Z,0
2017-08-04T00:53:10.840Z,0
2017-08-04T00:54:21.430Z,0
2017-08-04T00:55:31.941Z,0
2017-08-04T00:56:42.702Z,0
2017-08-04T00:57:53.169Z,0
2017-08-04T00:59:03.654Z,0
2017-08-04T01:00:13.679Z,0
2017-08-04T01:01:24.171Z,0
2017-08-04T01:02:35.914Z,0
2017-08-04T01:03:46.432Z,0
2017-08-04T01:04:56.910Z,0
2017-08-04T01:06:07.509Z,0
2017-08-04T01:07:18.053Z,0
2017-08-04T01:08:28.760Z,0
2017-08-04T01:09:39.207Z,0
2017-08-04T01:10:49.383Z,0
2017-08-04T01:11:59.866Z,0
2017-08-04T01:13:10.319Z,0
2017-08-04T01:14:21.039Z,0
2017-08-04T01:15:31.487Z,0
2017-08-04T01:16:41.949Z,0
2017-08-04T01:17:52.537Z,0
2017-08-04T01:19:03.078Z,0
2017-08-04T01:20:13.787Z,0
2017-08-04T01:21:24.320Z,0
2017-08-04T01:22:34.881Z,0
2017-08-04T01:23:45.336Z,0
2017-08-04T01:24:55.799Z,0
2017-08-04T01:26:06.527Z,0
2017-08-04T01:27:16.660Z,0
2017-08-04T01:28:27.138Z,0
2017-08-04T01:29:37.637Z,0
2017-08-04T01:30:48.135Z,0
2017-08-04T01:31:58.666Z,0
2017-08-04T01:33:09.142Z,0
2017-08-04T01:34:19.685Z,0
2017-08-04T01:35:29.839Z,0
2017-08-04T01:36:40.376Z,0
2017-08-04T01:37:50.803Z,0
2017-08-04T01:39:01.304Z,0
2017-08-04T01:40:11.773Z,0
2017-08-04T01:41:22.302Z,0
2017-08-04T01:42:32.756Z,0
2017-08-04T01:43:43.462Z,0
2017-08-04T01:44:53.961Z,0
2017-08-04T01:46:04.406Z,0
2017-08-04T01:47:14.897Z,0
2017-08-04T01:48:25.367Z,0
2017-08-04T01:49:36.226Z,0
2017-08-04T01:50:46.916Z,0
2017-08-04T01:51:57.373Z,0
2017-08-04T01:53:07.833Z,0
2017-08-04T01:54:18.416Z,0
2017-08-04T01:55:29.168Z,0
2017-08-04T01:56:39.778Z,0
2017-08-04T01:57:50.321Z,0
2017-08-04T01:59:00.790Z,0
2017-08-04T02:00:11.576Z,0
2017-08-04T02:01:22.330Z,0
2017-08-04T02:02:32.804Z,0
2017-08-04T02:03:43.389Z,0
2017-08-04T02:04:53.071Z,0
2017-08-04T02:06:03.539Z,0
2017-08-04T02:07:14.268Z,0
2017-08-04T02:08:24.772Z,0
2017-08-04T02:09:34.799Z,0
2017-08-04T02:10:45.374Z,0
2017-08-04T02:11:55.884Z,0
2017-08-04T02:13:06.611Z,0
2017-08-04T02:14:17.082Z,0
2017-08-04T02:15:27.538Z,0
2017-08-04T02:16:38.054Z,0
2017-08-04T02:17:48.551Z,0
2017-08-04T02:18:59.308Z,0
2017-08-04T02:20:09.801Z,0
2017-08-04T02:21:20.284Z,0
2017-08-04T02:22:30.884Z,0
2017-08-04T02:23:41.025Z,0
2017-08-04T02:24:51.836Z,0
2017-08-04T02:26:02.350Z,0
2017-08-04T02:27:12.805Z,0
2017-08-04T02:28:23.250Z,0
2017-08-04T02:29:33.740Z,0
2017-08-04T02:30:44.471Z,0
2017-08-04T02:31:55.039Z,0
2017-08-04T02:33:05.717Z,0
2017-08-04T02:34:16.176Z,0
2017-08-04T02:35:26.643Z,0
2017-08-04T02:36:37.386Z,0
2017-08-04T02:37:47.573Z,0
2017-08-04T02:38:58.058Z,0
2017-08-04T02:40:08.563Z,0
2017-08-04T02:41:19.052Z,0
2017-08-04T02:42:29.753Z,0
2017-08-04T02:43:40.266Z,0
2017-08-04T02:44:50.820Z,0
2017-08-04T02:46:01.301Z,0
2017-08-04T02:47:11.818Z,0
2017-08-04T02:48:22.556Z,0
2017-08-04T02:49:33.078Z,0
2017-08-04T02:50:43.564Z,0
2017-08-04T02:51:54.209Z,0
2017-08-04T02:53:04.737Z,0
2017-08-04T02:54:15.143Z,0
2017-08-04T02:55:25.623Z,0
2017-08-04T02:56:36.103Z,0
2017-08-04T02:57:46.289Z,0
2017-08-04T02:58:56.322Z,0
2017-08-04T03:00:07.079Z,0
2017-08-04T03:01:17.557Z,0
2017-08-04T03:02:28.057Z,4
2017-08-04T03:03:38.576Z,0
2017-08-04T03:04:49.057Z,0
2017-08-04T03:05:59.777Z,4
2017-08-04T03:07:10.358Z,0
2017-08-04T03:08:20.834Z,4
2017-08-04T03:09:31.014Z,4
2017-08-04T03:10:41.545Z,4
2017-08-04T03:11:52.264Z,4
2017-08-04T03:13:02.748Z,8
2017-08-04T03:14:13.224Z,8
2017-08-04T03:15:23.724Z,8
2017-08-04T03:16:34.217Z,12
2017-08-04T03:17:44.971Z,12
2017-08-04T03:18:55.143Z,20
2017-08-04T03:20:05.596Z,20
2017-08-04T03:21:16.144Z,20
2017-08-04T03:22:26.727Z,28
2017-08-04T03:23:37.489Z,32
2017-08-04T03:24:47.927Z,40
2017-08-04T03:25:58.394Z,44
2017-08-04T03:27:08.927Z,52
2017-08-04T03:28:19.434Z,56
2017-08-04T03:29:30.156Z,64
2017-08-04T03:30:40.727Z,76
2017-08-04T03:31:51.190Z,84
2017-08-04T03:33:01.686Z,96
2017-08-04T03:34:12.135Z,108
2017-08-04T03:35:22.854Z,116
2017-08-04T03:36:33.408Z,128
2017-08-04T03:37:43.873Z,140
2017-08-04T03:38:54.346Z,148
2017-08-04T03:40:04.853Z,160
2017-08-04T03:41:15.600Z,164
2017-08-04T03:42:26.122Z,172
2017-08-04T03:43:36.829Z,180
2017-08-04T03:44:47.290Z,188
2017-08-04T03:45:57.763Z,192
2017-08-04T03:47:08.488Z,200
2017-08-04T03:48:18.954Z,212
2017-08-04T03:49:29.409Z,232
2017-08-04T03:50:39.885Z,260
2017-08-04T03:51:50.351Z,276
2017-08-04T03:53:01.062Z,288
2017-08-04T03:54:11.201Z,300
2017-08-04T03:55:21.662Z,316
2017-08-04T03:56:32.343Z,340
2017-08-04T03:57:42.493Z,380
2017-08-04T03:58:53.236Z,412
2017-08-04T04:00:03.685Z,448
2017-08-04T04:01:14.178Z,508
2017-08-04T04:02:24.727Z,540
2017-08-04T04:03:35.275Z,564
2017-08-04T04:04:46.019Z,596
2017-08-04T04:05:56.165Z,664
2017-08-04T04:07:06.685Z,692
2017-08-04T04:08:17.292Z,684
2017-08-04T04:09:27.764Z,732
2017-08-04T04:10:38.547Z,836
2017-08-04T04:11:48.998Z,876
2017-08-04T04:12:59.157Z,884
2017-08-04T04:14:09.692Z,920
2017-08-04T04:15:20.194Z,980
2017-08-04T04:16:30.972Z,1036
2017-08-04T04:17:41.535Z,1080
2017-08-04T04:18:52.207Z,1136
2017-08-04T04:20:02.777Z,1180
2017-08-04T04:21:12.988Z,1200
2017-08-04T04:22:23.740Z,1220
2017-08-04T04:23:34.316Z,1288
2017-08-04T04:24:44.762Z,1340
2017-08-04T04:25:55.409Z,1412
2017-08-04T04:27:05.583Z,1496
2017-08-04T04:28:16.006Z,1588
2017-08-04T04:29:26.613Z,1668
2017-08-04T04:30:37.102Z,1764
2017-08-04T04:31:47.261Z,1864
2017-08-04T04:32:57.720Z,1932
2017-08-04T04:34:08.449Z,1952
2017-08-04T04:35:18.898Z,1972
2017-08-04T04:36:29.360Z,2008
2017-08-04T04:37:39.498Z,2028
2017-08-04T04:38:50.010Z,2080
2017-08-04T04:40:00.958Z,2156
2017-08-04T04:41:11.419Z,2252
2017-08-04T04:42:21.980Z,2296
2017-08-04T04:43:32.682Z,2372
2017-08-04T04:44:43.170Z,2612
2017-08-04T04:45:53.946Z,2808
2017-08-04T04:47:04.474Z,2892
2017-08-04T04:48:14.929Z,2932
2017-08-04T04:49:25.379Z,2944
2017-08-04T04:50:35.867Z,2972
2017-08-04T04:51:46.267Z,3044
2017-08-04T04:52:56.766Z,3116
2017-08-04T04:54:07.240Z,3212
2017-08-04T04:55:17.757Z,3428
2017-08-04T04:56:28.235Z,3616
2017-08-04T04:57:39.085Z,3744
2017-08-04T04:58:49.615Z,3924
2017-08-04T05:00:00.306Z,4132
2017-08-04T05:01:10.780Z,4120
2017-08-04T05:02:21.279Z,4016
2017-08-04T05:03:32.096Z,3888
2017-08-04T05:04:42.583Z,3676
2017-08-04T05:05:53.291Z,3604
2017-08-04T05:07:03.747Z,3736
2017-08-04T05:08:14.205Z,3932
2017-08-04T05:09:24.943Z,3900
2017-08-04T05:10:35.112Z,3944
2017-08-04T05:11:45.282Z,4000
2017-08-04T05:12:55.777Z,3916
2017-08-04T05:14:06.221Z,3828
2017-08-04T05:15:16.942Z,3856
2017-08-04T05:16:27.459Z,3936
2017-08-04T05:17:37.926Z,3952
2017-08-04T05:18:48.469Z,4056
2017-08-04T05:19:58.956Z,4068
2017-08-04T05:21:09.707Z,4180
2017-08-04T05:22:20.244Z,4308
2017-08-04T05:23:30.761Z,4576
2017-08-04T05:24:41.227Z,4996
2017-08-04T05:25:51.728Z,5164
2017-08-04T05:27:02.581Z,5588
2017-08-04T05:28:13.228Z,5832
2017-08-04T05:29:23.687Z,5988
2017-08-04T05:30:34.228Z,5480
2017-08-04T05:31:44.254Z,5068
2017-08-04T05:32:55.027Z,4876
2017-08-04T05:34:05.506Z,4808
2017-08-04T05:35:15.976Z,4936
2017-08-04T05:36:26.692Z,5328
2017-08-04T05:37:37.169Z,5868
2017-08-04T05:38:47.876Z,6452
2017-08-04T05:39:58.387Z,6948
2017-08-04T05:41:08.969Z,7136
2017-08-04T05:42:19.468Z,6916
2017-08-04T05:43:30.905Z,6764
2017-08-04T05:44:43.631Z,6940
2017-08-04T05:45:54.113Z,7240
2017-08-04T05:47:04.137Z,7684
2017-08-04T05:48:14.658Z,8016
2017-08-04T05:49:25.168Z,8440
2017-08-04T05:50:35.894Z,8488
2017-08-04T05:51:46.405Z,8380
2017-08-04T05:52:56.884Z,7852
2017-08-04T05:54:07.393Z,7868
2017-08-04T05:55:17.936Z,6916
2017-08-04T05:56:28.812Z,6804
2017-08-04T05:57:39.367Z,6756
2017-08-04T05:58:49.925Z,6652
2017-08-04T06:00:00.377Z,7108
2017-08-04T06:01:10.841Z,7692
2017-08-04T06:02:21.577Z,7924
2017-08-04T06:03:32.022Z,7848
2017-08-04T06:04:42.497Z,7528
2017-08-04T06:05:52.983Z,7572
2017-08-04T06:07:03.458Z,7316
2017-08-04T06:08:14.175Z,6960
2017-08-04T06:09:24.701Z,6768
2017-08-04T06:10:35.217Z,6736
2017-08-04T06:11:45.690Z,6372
2017-08-04T06:12:56.155Z,5868
2017-08-04T06:14:06.979Z,5776
2017-08-04T06:15:17.482Z,5528
2017-08-04T06:16:27.670Z,5760
2017-08-04T06:17:38.211Z,6188
2017-08-04T06:18:48.696Z,6860
2017-08-04T06:19:59.748Z,7064
2017-08-04T06:21:09.947Z,7916
2017-08-04T06:22:20.484Z,8868
2017-08-04T06:23:31.219Z,9576
2017-08-04T06:24:41.776Z,9304
2017-08-04T06:25:52.523Z,10400
2017-08-04T06:27:03.036Z,10864
2017-08-04T06:28:13.615Z,10868
2017-08-04T06:29:24.117Z,10740
2017-08-04T06:30:34.687Z,10156
2017-08-04T06:31:45.405Z,9400
2017-08-04T06:32:55.894Z,9064
2017-08-04T06:34:06.614Z,8532
2017-08-04T06:35:17.083Z,8116
2017-08-04T06:36:27.544Z,8104
2017-08-04T06:37:37.996Z,8096
2017-08-04T06:38:48.492Z,8060
2017-08-04T06:39:58.991Z,8308
2017-08-04T06:41:09.566Z,8864
2017-08-04T06:42:20.038Z,8384
2017-08-04T06:43:30.810Z,7928
2017-08-04T06:44:41.281Z,7596
2017-08-04T06:45:51.869Z,7468
2017-08-04T06:47:02.344Z,8068
2017-08-04T06:48:12.946Z,9292
2017-08-04T06:49:24.100Z,9652
2017-08-04T06:50:34.591Z,9652
2017-08-04T06:51:45.070Z,9568
2017-08-04T06:52:55.623Z,9252
2017-08-04T06:54:06.109Z,9332
2017-08-04T06:55:16.999Z,9316
2017-08-04T06:56:27.714Z,9508
2017-08-04T06:57:38.193Z,9784
2017-08-04T06:58:48.719Z,10432
2017-08-04T06:59:59.221Z,10728
2017-08-04T07:01:09.953Z,11044
2017-08-04T07:02:20.524Z,11524
2017-08-04T07:03:31.010Z,12432
2017-08-04T07:04:41.488Z,13100
2017-08-04T07:05:52.048Z,13616
2017-08-04T07:07:02.797Z,13688
2017-08-04T07:08:13.287Z,12364
2017-08-04T07:09:23.789Z,12100
2017-08-04T07:10:34.267Z,11652
2017-08-04T07:11:44.757Z,11944
2017-08-04T07:12:55.563Z,12544
2017-08-04T07:14:05.846Z,12680
2017-08-04T07:15:16.314Z,12672
2017-08-04T07:16:26.792Z,12644
2017-08-04T07:17:37.288Z,11540
2017-08-04T07:18:48.020Z,11656
2017-08-04T07:19:58.891Z,13408
2017-08-04T07:21:09.365Z,14932
2017-08-04T07:22:19.868Z,15808
2017-08-04T07:23:30.335Z,16800
2017-08-04T07:24:41.313Z,16864
2017-08-04T07:25:52.016Z,17344
2017-08-04T07:27:02.503Z,18016
2017-08-04T07:28:13.316Z,17408
2017-08-04T07:29:24.029Z,17216
2017-08-04T07:30:34.831Z,17472
2017-08-04T07:31:45.017Z,16704
2017-08-04T07:32:55.736Z,16032
2017-08-04T07:34:06.207Z,16480
2017-08-04T07:35:16.679Z,17344
2017-08-04T07:36:27.411Z,16960
2017-08-04T07:37:37.882Z,17280
2017-08-04T07:38:48.379Z,16736
2017-08-04T07:39:58.901Z,16416
2017-08-04T07:41:09.395Z,15872
2017-08-04T07:42:20.145Z,15196
2017-08-04T07:43:30.195Z,14056
2017-08-04T07:44:40.797Z,14108
2017-08-04T07:45:51.363Z,14524
2017-08-04T07:47:01.844Z,14432
2017-08-04T07:48:12.802Z,15968
2017-08-04T07:49:23.511Z,16128
2017-08-04T07:50:33.831Z,14936
2017-08-04T07:51:44.406Z,15968
2017-08-04T07:52:54.871Z,15528
2017-08-04T07:54:05.649Z,15060
2017-08-04T07:55:16.148Z,15236
2017-08-04T07:56:26.650Z,16928
2017-08-04T07:57:37.126Z,19264
2017-08-04T07:58:47.812Z,23008
2017-08-04T07:59:58.594Z,24064
2017-08-04T08:01:10.104Z,20512
2017-08-04T08:02:20.616Z,17888
2017-08-04T08:03:31.315Z,18144
2017-08-04T08:04:41.509Z,18528
2017-08-04T08:05:52.434Z,18464
2017-08-04T08:07:02.906Z,17824
2017-08-04T08:08:13.391Z,20512
2017-08-04T08:09:23.900Z,25120
2017-08-04T08:10:34.372Z,26112
2017-08-04T08:11:45.251Z,26496
2017-08-04T08:12:55.754Z,23616
2017-08-04T08:14:06.281Z,19744
2017-08-04T08:15:16.925Z,18912
2017-08-04T08:16:27.416Z,18240
2017-08-04T08:17:38.429Z,19328
2017-08-04T08:18:49.061Z,20000
2017-08-04T08:19:59.568Z,21280
2017-08-04T08:21:10.059Z,22304
2017-08-04T08:22:20.529Z,23584
2017-08-04T08:23:31.427Z,25248
2017-08-04T08:24:41.898Z,25120
2017-08-04T08:25:52.057Z,25568
2017-08-04T08:27:02.743Z,26368
2017-08-04T08:28:13.273Z,27488
2017-08-04T08:29:24.167Z,27648
2017-08-04T08:30:34.174Z,28448
2017-08-04T08:31:44.683Z,27968
2017-08-04T08:32:55.204Z,27872
2017-08-04T08:34:05.258Z,27072
2017-08-04T08:35:15.731Z,26592
2017-08-04T08:36:25.913Z,25152
2017-08-04T08:37:36.394Z,24608
2017-08-04T08:38:46.970Z,25504
2017-08-04T08:39:57.448Z,31616
2017-08-04T08:41:08.290Z,30336
2017-08-04T08:42:18.832Z,44608
2017-08-04T08:43:29.308Z,40096
2017-08-04T08:44:39.814Z,33216
2017-08-04T08:45:50.279Z,28384
2017-08-04T08:47:01.176Z,33152
2017-08-04T08:48:11.661Z,44704
2017-08-04T08:49:21.837Z,36896
2017-08-04T08:50:32.351Z,46240
2017-08-04T08:51:42.849Z,33056
2017-08-04T08:52:53.349Z,26848
2017-08-04T08:54:03.866Z,37952
2017-08-04T08:55:14.399Z,43904
2017-08-04T08:56:24.900Z,43232
2017-08-04T08:57:35.419Z,44256
2017-08-04T08:58:46.210Z,41440
2017-08-04T08:59:56.797Z,28992
2017-08-04T09:01:07.343Z,60768
2017-08-04T09:02:17.822Z,60960
2017-08-04T09:03:28.310Z,53280
2017-08-04T09:04:39.038Z,51072
2017-08-04T09:05:49.698Z,56128
2017-08-04T09:07:00.210Z,60000
2017-08-04T09:08:10.698Z,70656
2017-08-04T09:09:21.223Z,47040
2017-08-04T09:10:31.982Z,51840
2017-08-04T09:11:42.187Z,71968
2017-08-04T09:12:52.699Z,52416
2017-08-04T09:14:03.218Z,33056
2017-08-04T09:15:13.743Z,34912
2017-08-04T09:16:24.483Z,40192
2017-08-04T09:17:34.983Z,33056
2017-08-04T09:18:45.500Z,32160
2017-08-04T09:19:56.032Z,36736
2017-08-04T09:21:06.634Z,33440
2017-08-04T09:22:17.387Z,44864
2017-08-04T09:23:27.580Z,59200
2017-08-04T09:24:38.228Z,47712
2017-08-04T09:25:48.790Z,44000
2017-08-04T09:26:59.315Z,38336
2017-08-04T09:28:10.191Z,39968
2017-08-04T09:29:20.693Z,40000
2017-08-04T09:30:31.204Z,41920
2017-08-04T09:31:41.885Z,36256
2017-08-04T09:32:52.130Z,22880
2017-08-04T09:34:02.935Z,13860
2017-08-04T09:35:13.429Z,12480
2017-08-04T09:36:23.893Z,18016
2017-08-04T09:37:34.509Z,10456
2017-08-04T09:38:45.028Z,8860
2017-08-04T09:39:55.849Z,12860
2017-08-04T09:41:06.329Z,19840
2017-08-04T09:42:16.813Z,59136
2017-08-04T09:43:27.367Z,68096
2017-08-04T09:44:37.898Z,67232
2017-08-04T09:45:48.307Z,36864
2017-08-04T09:46:58.804Z,34496
2017-08-04T09:48:09.020Z,35456
2017-08-04T09:49:19.520Z,62656
2017-08-04T09:50:29.992Z,62944
2017-08-04T09:51:40.743Z,19840
2017-08-04T09:52:51.314Z,19904
2017-08-04T09:54:01.966Z,55936
2017-08-04T09:55:12.474Z,98624
2017-08-04T09:56:22.685Z,80416
2017-08-04T09:57:33.259Z,71040
2017-08-04T09:58:43.843Z,122016
2017-08-04T09:59:54.352Z,108320
2017-08-04T10:01:04.978Z,100256
2017-08-04T10:02:15.517Z,83584
2017-08-04T10:03:26.365Z,60256
2017-08-04T10:04:36.905Z,34112
2017-08-04T10:05:47.444Z,41184
2017-08-04T10:06:57.984Z,51776
2017-08-04T10:08:08.476Z,36832
2017-08-04T10:09:19.212Z,144000
2017-08-04T10:10:29.692Z,85376
2017-08-04T10:11:40.193Z,26304
2017-08-04T10:12:50.663Z,54752
2017-08-04T10:14:01.292Z,37280
2017-08-04T10:15:12.076Z,36928
2017-08-04T10:16:22.568Z,22592
2017-08-04T10:17:33.084Z,21792
2017-08-04T10:18:43.578Z,25248
2017-08-04T10:19:54.170Z,74880
2017-08-04T10:21:05.166Z,78080
2017-08-04T10:22:15.663Z,46144
2017-08-04T10:23:26.384Z,53216
2017-08-04T10:24:36.897Z,61536
2017-08-04T10:25:47.113Z,42240
2017-08-04T10:26:57.876Z,49984
2017-08-04T10:28:08.410Z,27296
2017-08-04T10:29:18.991Z,26816
2017-08-04T10:30:29.743Z,22400
2017-08-04T10:31:40.225Z,30784
2017-08-04T10:32:50.967Z,14900
2017-08-04T10:34:01.488Z,14148
2017-08-04T10:35:12.001Z,20960
2017-08-04T10:36:22.621Z,44832
2017-08-04T10:37:34.124Z,29312
2017-08-04T10:38:44.937Z,33152
2017-08-04T10:39:55.428Z,24480
2017-08-04T10:41:05.946Z,20064
2017-08-04T10:42:16.429Z,21440
2017-08-04T10:43:26.913Z,86176
2017-08-04T10:44:37.697Z,94368
2017-08-04T10:45:48.266Z,123072
2017-08-04T10:46:58.814Z,113760
2017-08-04T10:48:09.373Z,31616
2017-08-04T10:49:19.605Z,48992
2017-08-04T10:50:30.355Z,42208
2017-08-04T10:51:40.874Z,47296
2017-08-04T10:52:51.507Z,65664
2017-08-04T10:54:01.756Z,55232
2017-08-04T10:55:12.263Z,35136
2017-08-04T10:56:22.986Z,64192
2017-08-04T10:57:33.777Z,30432
2017-08-04T10:58:44.496Z,22912
2017-08-04T10:59:54.993Z,39712
2017-08-04T11:01:05.191Z,43776
2017-08-04T11:02:15.968Z,47424
2017-08-04T11:03:26.482Z,116960
2017-08-04T11:04:36.991Z,42464
2017-08-04T11:05:47.608Z,34592
2017-08-04T11:06:58.102Z,33952
2017-08-04T11:08:08.988Z,38592
2017-08-04T11:09:19.495Z,39968
2017-08-04T11:10:30.006Z,50720
2017-08-04T11:11:41.527Z,62176
2017-08-04T11:12:51.612Z,96096
2017-08-04T11:14:02.464Z,98752
2017-08-04T11:15:12.751Z,67424
2017-08-04T11:16:23.241Z,27744
2017-08-04T11:17:33.767Z,33728
2017-08-04T11:18:44.294Z,97280
2017-08-04T11:19:55.093Z,94016
2017-08-04T11:21:05.683Z,78144
2017-08-04T11:22:16.184Z,79712
2017-08-04T11:23:26.699Z,44864
2017-08-04T11:24:36.560Z,33952
2017-08-04T11:25:47.316Z,29440
2017-08-04T11:26:58.259Z,26144
2017-08-04T11:28:08.808Z,23040
2017-08-04T11:29:19.285Z,22752
2017-08-04T11:30:29.898Z,46528
2017-08-04T11:31:40.676Z,48800
2017-08-04T11:32:51.170Z,37088
2017-08-04T11:34:01.703Z,55456
2017-08-04T11:35:12.243Z,35904
2017-08-04T11:36:22.763Z,34176
2017-08-04T11:37:33.746Z,47488
2017-08-04T11:38:44.220Z,37408
2017-08-04T11:39:55.068Z,27712
2017-08-04T11:41:05.596Z,41952
2017-08-04T11:42:16.083Z,29536
2017-08-04T11:43:26.824Z,25408
2017-08-04T11:44:36.874Z,23904
2017-08-04T11:45:47.607Z,23168
2017-08-04T11:46:58.097Z,17280
2017-08-04T11:48:08.605Z,13284
2017-08-04T11:49:19.661Z,12856
2017-08-04T11:50:30.213Z,17344
2017-08-04T11:51:40.737Z,28256
2017-08-04T11:52:50.914Z,38080
2017-08-04T11:54:01.561Z,31200
2017-08-04T11:55:12.411Z,26496
2017-08-04T11:56:23.128Z,48320
2017-08-04T11:57:33.648Z,28800
2017-08-04T11:58:44.179Z,28672
2017-08-04T11:59:54.699Z,35296
2017-08-04T12:01:05.114Z,67776
2017-08-04T12:02:15.801Z,33312
2017-08-04T12:03:26.036Z,128928
2017-08-04T12:04:36.532Z,30432
2017-08-04T12:05:47.028Z,33984
2017-08-04T12:06:57.793Z,135104
2017-08-04T12:08:08.296Z,138560
2017-08-04T12:09:18.789Z,129536
2017-08-04T12:10:28.987Z,130240
2017-08-04T12:11:39.811Z,128288
2017-08-04T12:12:50.575Z,67584
2017-08-04T12:14:01.062Z,84672
2017-08-04T12:15:11.561Z,114368
2017-08-04T12:16:22.140Z,137600
2017-08-04T12:17:32.695Z,135616
2017-08-04T12:18:43.469Z,127200
2017-08-04T12:19:53.974Z,113056
2017-08-04T12:21:04.551Z,91904
2017-08-04T12:22:15.127Z,95776
2017-08-04T12:23:25.642Z,137760
2017-08-04T12:24:36.372Z,154592
2017-08-04T12:25:46.940Z,126272
2017-08-04T12:26:57.574Z,93312
2017-08-04T12:28:07.675Z,108896
2017-08-04T12:29:18.163Z,116096
2017-08-04T12:30:28.914Z,105568
2017-08-04T12:31:39.482Z,83616
2017-08-04T12:32:50.048Z,21216
2017-08-04T12:34:00.544Z,118144
2017-08-04T12:35:11.034Z,101024
2017-08-04T12:36:21.817Z,97120
2017-08-04T12:37:32.330Z,129056
2017-08-04T12:38:43.130Z,149344
2017-08-04T12:39:53.742Z,139424
2017-08-04T12:41:04.325Z,108640
2017-08-04T12:42:29.677Z,93856
2017-08-04T12:43:40.222Z,97344
2017-08-04T12:44:50.740Z,99680
2017-08-04T12:46:01.387Z,106464
2017-08-04T12:47:12.213Z,38400
2017-08-04T12:48:22.920Z,88384
2017-08-04T12:49:33.439Z,33920
2017-08-04T12:50:43.937Z,117568
2017-08-04T12:51:54.449Z,116128
2017-08-04T12:53:05.195Z,93792
2017-08-04T12:54:15.411Z,96608
2017-08-04T12:55:26.011Z,30112
2017-08-04T12:56:36.521Z,25056
2017-08-04T12:57:47.020Z,54272
2017-08-04T12:58:57.774Z,31488
2017-08-04T13:00:08.317Z,25568
2017-08-04T13:01:18.827Z,24896
2017-08-04T13:02:29.447Z,106688
2017-08-04T13:03:40.015Z,107744
2017-08-04T13:04:50.780Z,28224
2017-08-04T13:06:01.307Z,31040
2017-08-04T13:07:11.869Z,91232
2017-08-04T13:08:22.389Z,103520
2017-08-04T13:09:32.942Z,106272
2017-08-04T13:10:43.384Z,81280
2017-08-04T13:11:53.903Z,63136
2017-08-04T13:13:04.564Z,41760
2017-08-04T13:14:15.096Z,117312
2017-08-04T13:15:25.632Z,113888
2017-08-04T13:16:36.429Z,56288
2017-08-04T13:17:47.048Z,20512
2017-08-04T13:18:57.564Z,24928
2017-08-04T13:20:07.860Z,43552
2017-08-04T13:21:18.362Z,48128
2017-08-04T13:22:29.171Z,109824
2017-08-04T13:23:39.666Z,101376
2017-08-04T13:24:49.761Z,27552
2017-08-04T13:26:00.406Z,96416
2017-08-04T13:27:10.916Z,20608
2017-08-04T13:28:21.670Z,104288
2017-08-04T13:29:32.206Z,89952
2017-08-04T13:30:42.806Z,118688
2017-08-04T13:31:53.288Z,139808
2017-08-04T13:33:03.809Z,22784
2017-08-04T13:34:14.602Z,32768
2017-08-04T13:35:25.146Z,83648
2017-08-04T13:36:35.693Z,32896
2017-08-04T13:37:46.204Z,14968
2017-08-04T13:38:56.477Z,13452
2017-08-04T13:40:07.269Z,19552
2017-08-04T13:41:17.819Z,24352
2017-08-04T13:42:28.026Z,25408
2017-08-04T13:43:38.578Z,13816
2017-08-04T13:44:49.354Z,13312
2017-08-04T13:45:59.795Z,15252
2017-08-04T13:47:10.338Z,15744
2017-08-04T13:48:20.930Z,14720
2017-08-04T13:49:31.450Z,13844
2017-08-04T13:50:41.978Z,14400
2017-08-04T13:51:52.777Z,14472
2017-08-04T13:53:03.530Z,16096
2017-08-04T13:54:13.637Z,18144
2017-08-04T13:55:24.184Z,23264
2017-08-04T13:56:34.672Z,46176
2017-08-04T13:57:45.087Z,21696
2017-08-04T13:58:55.672Z,16864
2017-08-04T14:00:06.230Z,15204
2017-08-04T14:01:16.773Z,15584
2017-08-04T14:02:27.266Z,19680
2017-08-04T14:03:38.053Z,16768
2017-08-04T14:04:48.532Z,38240
2017-08-04T14:05:59.028Z,16096
2017-08-04T14:07:09.525Z,11816
2017-08-04T14:08:19.752Z,11032
2017-08-04T14:09:30.514Z,10056
2017-08-04T14:10:41.026Z,10572
2017-08-04T14:11:51.210Z,11400
2017-08-04T14:13:01.690Z,14252
2017-08-04T14:14:12.176Z,50880
2017-08-04T14:15:22.919Z,32928
2017-08-04T14:16:33.415Z,16672
2017-08-04T14:17:43.965Z,13268
2017-08-04T14:18:54.577Z,16064
2017-08-04T14:20:05.099Z,17760
2017-08-04T14:21:15.948Z,16768
2017-08-04T14:22:26.196Z,14748
2017-08-04T14:23:36.378Z,14760
2017-08-04T14:24:46.585Z,14668
2017-08-04T14:25:56.726Z,16288
2017-08-04T14:27:07.475Z,15512
2017-08-04T14:28:18.032Z,12748
2017-08-04T14:29:28.527Z,12476
2017-08-04T14:30:38.995Z,13200
2017-08-04T14:31:49.569Z,22400
2017-08-04T14:33:00.334Z,19648
2017-08-04T14:34:10.820Z,70464
2017-08-04T14:35:21.332Z,26976
2017-08-04T14:36:31.899Z,93472
2017-08-04T14:37:42.090Z,72256
2017-08-04T14:38:52.616Z,39168
2017-08-04T14:40:03.117Z,75456
2017-08-04T14:41:13.668Z,9948
2017-08-04T14:42:24.373Z,53536
2017-08-04T14:43:34.852Z,14048
2017-08-04T14:44:45.338Z,14224
2017-08-04T14:45:56.056Z,12092
2017-08-04T14:47:06.555Z,9880
2017-08-04T14:48:17.044Z,8580
2017-08-04T14:49:27.537Z,10680
2017-08-04T14:50:38.561Z,11844
2017-08-04T14:51:49.259Z,10416
2017-08-04T14:52:59.791Z,11116
2017-08-04T14:54:10.322Z,11732
2017-08-04T14:55:20.497Z,12240
2017-08-04T14:56:31.254Z,13484
2017-08-04T14:57:41.602Z,12880
2017-08-04T14:58:52.094Z,9784
2017-08-04T15:00:02.600Z,12904
2017-08-04T15:01:13.072Z,10728
2017-08-04T15:02:23.813Z,10188
2017-08-04T15:03:34.326Z,13944
2017-08-04T15:04:44.606Z,58528
2017-08-04T15:05:54.826Z,40768
2017-08-04T15:07:04.998Z,10212
2017-08-04T15:08:15.444Z,9384
2017-08-04T15:09:26.006Z,12608
2017-08-04T15:10:36.670Z,13476
2017-08-04T15:11:47.229Z,15748
2017-08-04T15:12:57.878Z,13952
2017-08-04T15:14:08.764Z,68736
2017-08-04T15:15:19.505Z,23328
2017-08-04T15:16:30.290Z,9768
2017-08-04T15:17:40.494Z,12868
2017-08-04T15:18:51.010Z,61440
2017-08-04T15:20:01.751Z,43424
2017-08-04T15:21:12.281Z,50080
2017-08-04T15:22:22.757Z,10392
2017-08-04T15:23:32.905Z,7352
2017-08-04T15:24:43.685Z,8944
2017-08-04T15:25:54.461Z,62592
2017-08-04T15:27:05.058Z,10664
2017-08-04T15:28:15.583Z,8072
2017-08-04T15:29:26.189Z,7096
2017-08-04T15:30:36.893Z,7448
2017-08-04T15:31:47.794Z,9200
2017-08-04T15:32:58.369Z,10840
2017-08-04T15:34:08.567Z,11216
2017-08-04T15:35:19.362Z,11540
2017-08-04T15:36:28.997Z,13192
2017-08-04T15:37:40.029Z,16704
2017-08-04T15:38:50.790Z,11684
2017-08-04T15:40:01.316Z,8520
2017-08-04T15:41:12.119Z,9904
2017-08-04T15:42:22.784Z,9496